createdAt,value
2024-03-05T00:00:12.064Z,11.40
2024-03-05T00:03:02.893Z,9.70
2024-03-05T00:05:31.438Z,10.80
2024-03-05T00:07:59.551Z,11.50
2024-03-05T00:10:27.701Z,8.80
2024-03-05T00:12:55.977Z,9.60
2024-03-05T00:15:24.003Z,10.20
2024-03-05T00:17:52.062Z,10.50
2024-03-05T00:20:20.532Z,11.90
2024-03-05T00:22:49.446Z,19.70
2024-03-05T00:25:18.219Z,13.70
2024-03-05T00:27:46.361Z,14.20
2024-03-05T00:30:15.504Z,13.70
2024-03-05T00:32:43.872Z,12.70
2024-03-05T00:35:12.108Z,11.70
2024-03-05T00:37:40.571Z,11.30
2024-03-05T00:40:10.020Z,10.90
2024-03-05T00:42:39.087Z,11.20
2024-03-05T00:45:13.264Z,10.00
2024-03-05T00:47:41.611Z,10.10
2024-03-05T00:50:14.238Z,10.20
2024-03-05T00:52:42.582Z,10.30
2024-03-05T00:55:10.707Z,13.40
2024-03-05T00:57:39.074Z,14.90
2024-03-05T01:00:08.082Z,10.20
2024-03-05T01:02:36.662Z,10.40
2024-03-05T01:05:08.412Z,10.40
2024-03-05T01:07:37.764Z,9.60
2024-03-05T01:10:07.008Z,10.80
2024-03-05T01:12:35.294Z,10.10
2024-03-05T01:15:04.337Z,10.20
2024-03-05T01:17:33.642Z,9.60
2024-03-05T01:20:01.817Z,11.30
2024-03-05T01:22:30.006Z,10.20
2024-03-05T01:24:58.211Z,11.50
2024-03-05T01:27:26.453Z,10.30
2024-03-05T01:29:54.508Z,9.80
2024-03-05T01:32:23.117Z,8.80
2024-03-05T01:34:51.306Z,10.10
2024-03-05T01:37:19.498Z,11.20
2024-03-05T01:39:47.548Z,11.20
2024-03-05T01:42:15.664Z,10.90
2024-03-05T01:44:44.024Z,11.90
2024-03-05T01:47:12.473Z,12.50
2024-03-05T01:49:40.627Z,13.60
2024-03-05T01:52:08.627Z,12.90
2024-03-05T01:54:36.606Z,12.80
2024-03-05T01:57:04.780Z,13.00
2024-03-05T01:59:32.915Z,13.20
2024-03-05T02:02:01.070Z,13.90
2024-03-05T02:04:29.189Z,14.50
2024-03-05T02:06:57.436Z,10.80
2024-03-05T02:09:25.640Z,12.00
2024-03-05T02:11:59.172Z,12.70
2024-03-05T02:14:27.994Z,14.10
2024-03-05T02:16:57.457Z,12.90
2024-03-05T02:19:25.627Z,12.60
2024-03-05T02:22:03.632Z,11.00
2024-03-05T02:24:31.967Z,10.50
2024-03-05T02:27:03.611Z,13.50
2024-03-05T02:29:32.514Z,11.70
2024-03-05T02:32:00.650Z,12.00
2024-03-05T02:34:29.132Z,10.90
2024-03-05T02:36:59.008Z,10.80
2024-03-05T02:39:28.473Z,11.40
2024-03-05T02:41:56.662Z,12.10
2024-03-05T02:44:24.750Z,15.30
2024-03-05T02:46:53.129Z,13.20
2024-03-05T02:49:21.302Z,12.70
2024-03-05T02:51:49.453Z,13.90
2024-03-05T02:54:18.185Z,13.60
2024-03-05T02:56:46.486Z,12.70
2024-03-05T02:59:14.523Z,15.20
2024-03-05T03:01:47.506Z,14.60
2024-03-05T03:04:16.597Z,13.50
2024-03-05T03:06:44.862Z,12.80
2024-03-05T03:09:12.977Z,12.40
2024-03-05T03:11:43.149Z,11.60
2024-03-05T03:14:13.079Z,11.70
2024-03-05T03:16:44.648Z,11.50
2024-03-05T03:19:13.509Z,13.00
2024-03-05T03:21:42.348Z,12.40
2024-03-05T03:24:13.467Z,11.70
2024-03-05T03:29:12.511Z,11.40
2024-03-05T03:31:47.117Z,11.50
2024-03-05T03:34:18.517Z,12.70
2024-03-05T03:36:46.763Z,15.30
2024-03-05T03:39:24.862Z,12.90
2024-03-05T03:41:56.791Z,13.00
2024-03-05T03:44:24.858Z,14.20
2024-03-05T03:46:53.266Z,13.20
2024-03-05T03:49:26.145Z,14.30
2024-03-05T03:51:55.227Z,14.30
2024-03-05T03:54:24.152Z,13.90
2024-03-05T03:56:52.796Z,13.20
2024-03-05T03:59:21.465Z,11.90
2024-03-05T04:01:51.145Z,12.20
2024-03-05T04:04:19.432Z,13.40
2024-03-05T04:06:47.590Z,13.20
2024-03-05T04:09:15.792Z,11.70
2024-03-05T04:11:44.013Z,12.40
2024-03-05T04:14:12.366Z,13.60
2024-03-05T04:16:41.277Z,14.10
2024-03-05T04:19:09.830Z,14.60
2024-03-05T04:21:43.833Z,12.60
2024-03-05T04:24:15.121Z,13.50
2024-03-05T04:26:43.754Z,12.40
2024-03-05T04:29:17.874Z,12.30
2024-03-05T04:31:56.364Z,16.60
2024-03-05T04:34:24.785Z,14.80
2024-03-05T04:36:55.621Z,16.90
2024-03-05T04:39:25.242Z,14.20
2024-03-05T04:41:53.506Z,14.00
2024-03-05T04:44:21.852Z,13.80
2024-03-05T04:46:50.208Z,14.00
2024-03-05T04:49:18.557Z,14.90
2024-03-05T04:51:46.734Z,14.40
2024-03-05T04:54:15.630Z,13.10
2024-03-05T04:56:43.817Z,13.70
2024-03-05T04:59:11.961Z,18.40
2024-03-05T05:01:41.075Z,15.20
2024-03-05T05:04:09.279Z,17.70
2024-03-05T05:06:37.296Z,14.70
2024-03-05T05:09:06.802Z,13.60
2024-03-05T05:11:35.261Z,13.60
2024-03-05T05:14:04.188Z,19.90
2024-03-05T05:16:32.776Z,20.80
2024-03-05T05:19:01.011Z,18.90
2024-03-05T05:21:29.114Z,18.50
2024-03-05T05:23:57.204Z,16.10
2024-03-05T05:26:25.307Z,17.30
2024-03-05T05:28:53.738Z,16.60
2024-03-05T05:31:27.967Z,17.00
2024-03-05T05:33:59.003Z,15.60
2024-03-05T05:36:27.103Z,15.80
2024-03-05T05:38:55.271Z,16.40
2024-03-05T05:41:23.273Z,14.90
2024-03-05T05:43:51.603Z,16.10
2024-03-05T05:46:23.053Z,16.90
2024-03-05T05:48:51.277Z,18.00
2024-03-05T05:51:19.812Z,18.60
2024-03-05T05:53:47.882Z,17.10
2024-03-05T05:56:16.915Z,17.40
2024-03-05T05:58:45.674Z,18.30
2024-03-05T06:01:15.316Z,16.80
2024-03-05T06:03:46.418Z,17.90
2024-03-05T06:06:17.924Z,17.40
2024-03-05T06:08:47.298Z,17.00
2024-03-05T06:11:15.643Z,17.90
2024-03-05T06:13:45.015Z,17.90
2024-03-05T06:16:13.823Z,17.90
2024-03-05T06:18:42.505Z,17.00
2024-03-05T06:21:10.578Z,15.50
2024-03-05T06:23:38.813Z,18.30
2024-03-05T06:26:08.622Z,15.60
2024-03-05T06:28:39.259Z,17.00
2024-03-05T06:31:07.552Z,16.80
2024-03-05T06:33:35.638Z,17.30
2024-03-05T06:36:07.755Z,17.50
2024-03-05T06:38:36.065Z,18.50
2024-03-05T06:41:04.470Z,18.30
2024-03-05T06:43:38.709Z,16.80
2024-03-05T06:46:11.002Z,18.60
2024-03-05T06:48:48.479Z,17.80
2024-03-05T06:51:32.837Z,21.00
2024-03-05T06:54:19.922Z,15.50
2024-03-05T06:56:47.949Z,17.20
2024-03-05T06:59:16.079Z,17.10
2024-03-05T07:01:44.768Z,17.40
2024-03-05T07:04:12.866Z,16.80
2024-03-05T07:06:40.959Z,17.50
2024-03-05T07:09:12.833Z,15.60
2024-03-05T07:11:41.364Z,15.40
2024-03-05T07:14:09.472Z,15.60
2024-03-05T07:16:37.753Z,16.40
2024-03-05T07:19:06.003Z,16.80
2024-03-05T07:21:35.019Z,15.70
2024-03-05T07:24:03.694Z,15.30
2024-03-05T07:26:35.802Z,12.20
2024-03-05T07:29:04.213Z,12.80
2024-03-05T07:31:33.033Z,13.20
2024-03-05T07:34:01.305Z,12.90
2024-03-05T07:36:29.474Z,14.00
2024-03-05T07:38:58.183Z,13.70
2024-03-05T07:41:33.082Z,13.70
2024-03-05T07:44:04.739Z,11.70
2024-03-05T07:46:34.891Z,13.30
2024-03-05T07:49:03.829Z,14.10
2024-03-05T07:51:41.009Z,14.90
2024-03-05T07:54:14.230Z,16.90
2024-03-05T07:56:42.827Z,15.50
2024-03-05T07:59:11.850Z,14.30
2024-03-05T08:01:40.145Z,14.40
2024-03-05T08:04:08.549Z,15.70
2024-03-05T08:06:36.774Z,18.40
2024-03-05T08:09:05.233Z,14.50
2024-03-05T08:11:35.287Z,16.50
2024-03-05T08:14:05.192Z,14.20
2024-03-05T08:16:35.429Z,15.20
2024-03-05T08:19:05.376Z,14.50
2024-03-05T08:21:36.041Z,13.70
2024-03-05T08:24:04.891Z,15.40
2024-03-05T08:26:33.111Z,15.20
2024-03-05T08:29:01.510Z,14.50
2024-03-05T08:31:30.115Z,14.00
2024-03-05T08:33:58.533Z,13.80
2024-03-05T08:36:26.968Z,14.10
2024-03-05T08:38:55.130Z,13.20
2024-03-05T08:41:23.077Z,12.30
2024-03-05T08:43:51.337Z,11.30
2024-03-05T08:46:20.826Z,12.70
2024-03-05T08:48:48.956Z,11.90
2024-03-05T08:51:17.204Z,11.60
2024-03-05T08:53:45.336Z,11.60
2024-03-05T08:56:14.643Z,11.70
2024-03-05T08:58:44.255Z,10.60
2024-03-05T09:01:14.388Z,9.00
2024-03-05T09:03:42.925Z,10.00
2024-03-05T09:06:11.037Z,10.20
2024-03-05T09:08:41.895Z,10.10
2024-03-05T09:11:10.335Z,9.80
2024-03-05T09:13:45.022Z,8.70
2024-03-05T09:16:16.439Z,8.80
2024-03-05T09:18:44.594Z,8.60
2024-03-05T09:21:13.375Z,7.70
2024-03-05T09:23:41.712Z,8.00
2024-03-05T09:26:09.921Z,8.40
2024-03-05T09:28:38.384Z,8.70
2024-03-05T09:31:06.741Z,9.00
2024-03-05T09:33:35.077Z,9.40
2024-03-05T09:36:06.162Z,8.40
2024-03-05T09:38:35.225Z,8.10
2024-03-05T09:41:06.039Z,8.00
2024-03-05T09:43:34.692Z,8.30
2024-03-05T09:46:06.515Z,10.60
2024-03-05T09:48:35.055Z,9.10
2024-03-05T09:51:03.212Z,11.50
2024-03-05T09:53:31.189Z,9.00
2024-03-05T09:55:59.317Z,8.60
2024-03-05T09:58:34.316Z,10.20
2024-03-05T10:01:07.323Z,9.50
2024-03-05T10:03:36.554Z,9.00
2024-03-05T10:06:06.280Z,12.50
2024-03-05T10:08:34.685Z,9.30
2024-03-05T10:11:04.422Z,11.40
2024-03-05T10:13:36.624Z,11.50
2024-03-05T10:16:23.844Z,11.20
2024-03-05T10:18:52.138Z,11.10
2024-03-05T10:21:22.779Z,11.80
2024-03-05T10:24:01.880Z,11.30
2024-03-05T10:26:31.456Z,12.60
2024-03-05T10:29:02.042Z,10.90
2024-03-05T10:31:30.148Z,11.70
2024-03-05T10:33:59.337Z,11.50
2024-03-05T10:36:31.583Z,10.30
2024-03-05T10:38:59.968Z,11.90
2024-03-05T10:41:43.445Z,10.30
2024-03-05T10:44:18.792Z,10.40
2024-03-05T10:46:48.399Z,10.40
2024-03-05T10:49:18.361Z,9.50
2024-03-05T10:51:46.388Z,9.40
2024-03-05T10:54:14.536Z,9.70
2024-03-05T10:56:44.809Z,11.00
2024-03-05T10:59:19.278Z,10.20
2024-03-05T11:01:47.543Z,8.70
2024-03-05T11:04:19.909Z,7.90
2024-03-05T11:06:48.592Z,8.00
2024-03-05T11:09:23.156Z,6.70
2024-03-05T11:11:58.446Z,6.00
2024-03-05T11:14:26.596Z,6.40
2024-03-05T11:16:58.945Z,7.40
2024-03-05T11:19:30.144Z,7.90
2024-03-05T11:22:00.005Z,7.80
2024-03-05T11:24:28.356Z,7.50
2024-03-05T11:27:03.335Z,5.90
2024-03-05T11:29:31.407Z,6.00
2024-03-05T11:31:59.878Z,5.50
2024-03-05T11:34:29.198Z,4.70
2024-03-05T11:37:12.333Z,4.50
2024-03-05T11:39:45.628Z,4.70
2024-03-05T11:42:20.738Z,5.00
2024-03-05T11:44:52.685Z,5.20
2024-03-05T11:47:22.362Z,6.70
2024-03-05T11:49:51.031Z,7.60
2024-03-05T11:52:23.429Z,6.70
2024-03-05T11:54:59.546Z,7.40
2024-03-05T11:57:28.878Z,6.70
2024-03-05T11:59:57.024Z,7.10
2024-03-05T12:02:25.383Z,6.80
2024-03-05T12:04:54.773Z,6.60
2024-03-05T12:07:23.889Z,5.70
2024-03-05T12:09:57.132Z,6.70
2024-03-05T12:12:26.074Z,6.50
2024-03-05T12:14:55.375Z,6.60
2024-03-05T12:17:24.394Z,7.20
2024-03-05T12:20:09.765Z,6.90
2024-03-05T12:22:41.669Z,7.50
2024-03-05T12:25:11.496Z,7.30
2024-03-05T12:27:39.849Z,7.20
2024-03-05T12:30:08.771Z,7.20
2024-03-05T12:32:38.034Z,7.20
2024-03-05T12:35:07.237Z,6.70
2024-03-05T12:37:37.243Z,6.70
2024-03-05T12:40:08.542Z,7.20
2024-03-05T12:42:36.972Z,7.10
2024-03-05T12:45:11.006Z,6.90
2024-03-05T12:47:39.823Z,5.90
2024-03-05T12:50:09.211Z,6.40
2024-03-05T12:52:37.945Z,7.30
2024-03-05T12:55:08.532Z,7.00
2024-03-05T12:57:36.891Z,7.40
2024-03-05T13:00:14.142Z,7.90
2024-03-05T13:02:43.282Z,7.80
2024-03-05T13:05:11.780Z,7.80
2024-03-05T13:07:40.267Z,8.10
2024-03-05T13:10:12.155Z,7.80
2024-03-05T13:12:43.108Z,8.30
2024-03-05T13:15:12.206Z,7.70
2024-03-05T13:17:40.338Z,6.90
2024-03-05T13:20:19.966Z,6.10
2024-03-05T13:22:55.385Z,7.00
2024-03-05T13:25:26.175Z,6.40
2024-03-05T13:27:54.260Z,6.30
2024-03-05T13:30:22.676Z,6.00
2024-03-05T13:32:51.642Z,6.00
2024-03-05T13:35:20.142Z,5.90
2024-03-05T13:37:48.894Z,6.10
2024-03-05T13:40:20.371Z,6.10
2024-03-05T13:42:49.438Z,5.90
2024-03-05T13:45:19.387Z,5.30
2024-03-05T13:47:47.828Z,5.00
2024-03-05T13:50:17.786Z,6.00
2024-03-05T13:52:49.408Z,4.80
2024-03-05T13:55:18.060Z,4.80
2024-03-05T13:57:48.786Z,5.90
2024-03-05T14:00:22.125Z,5.40
2024-03-05T14:02:50.444Z,5.70
2024-03-05T14:05:19.192Z,6.30
2024-03-05T14:07:48.579Z,5.60
2024-03-05T14:10:17.180Z,5.10
2024-03-05T14:12:50.666Z,5.80
2024-03-05T14:15:23.061Z,4.70
2024-03-05T14:17:52.201Z,4.90
2024-03-05T14:20:25.986Z,5.40
2024-03-05T14:22:55.332Z,5.60
2024-03-05T14:25:24.072Z,5.30
2024-03-05T14:27:52.611Z,5.60
2024-03-05T14:30:21.129Z,5.20
2024-03-05T14:32:49.729Z,5.90
2024-03-05T14:35:19.265Z,5.20
2024-03-05T14:37:47.836Z,5.90
2024-03-05T14:40:16.704Z,5.30
2024-03-05T14:42:45.719Z,5.70
2024-03-05T14:45:17.528Z,4.90
2024-03-05T14:47:47.689Z,4.70
2024-03-05T14:52:44.394Z,5.70
2024-03-05T14:55:14.247Z,6.00
2024-03-05T14:57:48.057Z,5.60
2024-03-05T15:00:17.269Z,6.10
2024-03-05T15:02:48.808Z,5.20
2024-03-05T15:05:18.046Z,5.50
2024-03-05T15:07:46.308Z,5.60
2024-03-05T15:10:16.151Z,5.60
2024-03-05T15:12:49.399Z,5.10
2024-03-05T15:15:18.081Z,5.50
2024-03-05T15:17:46.970Z,5.60
2024-03-05T15:20:17.269Z,4.70
2024-03-05T15:25:14.844Z,4.50
2024-03-05T15:27:45.759Z,5.60
2024-03-05T15:30:17.168Z,5.30
2024-03-05T15:32:51.688Z,5.10
2024-03-05T15:35:21.271Z,5.50
2024-03-05T15:37:50.344Z,4.90
2024-03-05T15:40:20.905Z,6.10
2024-03-05T15:45:23.948Z,5.00
2024-03-05T15:47:54.145Z,5.60
2024-03-05T15:52:53.479Z,4.90
2024-03-05T15:55:25.175Z,6.60
2024-03-05T15:58:02.808Z,6.90
2024-03-05T16:00:37.759Z,7.70
2024-03-05T16:03:11.339Z,7.80
2024-03-05T16:05:51.856Z,8.00
2024-03-05T16:08:29.658Z,8.60
2024-03-05T16:11:00.127Z,9.70
2024-03-05T16:13:30.660Z,8.60
2024-03-05T16:15:59.151Z,8.60
2024-03-05T16:18:27.793Z,8.10
2024-03-05T16:21:01.326Z,7.60
2024-03-05T16:23:29.597Z,8.20
2024-03-05T16:25:58.341Z,7.30
2024-03-05T16:28:26.498Z,6.40
2024-03-05T16:30:54.561Z,6.40
2024-03-05T16:33:23.054Z,6.70
2024-03-05T16:35:53.392Z,6.70
2024-03-05T16:38:21.636Z,6.80
2024-03-05T16:40:50.265Z,7.30
2024-03-05T16:43:18.616Z,6.20
2024-03-05T16:45:48.028Z,7.10
2024-03-05T16:48:16.328Z,6.70
2024-03-05T16:50:45.188Z,8.90
2024-03-05T16:53:13.490Z,8.00
2024-03-05T16:55:43.062Z,7.80
2024-03-05T16:58:15.049Z,7.10
2024-03-05T17:00:56.536Z,7.70
2024-03-05T17:03:29.865Z,8.70
2024-03-05T17:05:58.598Z,9.50
2024-03-05T17:08:28.090Z,11.20
2024-03-05T17:10:56.323Z,9.30
2024-03-05T17:13:27.795Z,8.80
2024-03-05T17:16:00.285Z,8.80
2024-03-05T17:18:32.002Z,9.80
2024-03-05T17:21:00.997Z,9.10
2024-03-05T17:23:30.763Z,8.70
2024-03-05T17:26:00.078Z,9.80
2024-03-05T17:28:28.820Z,8.80
2024-03-05T17:31:00.348Z,7.90
2024-03-05T17:33:29.189Z,7.40
2024-03-05T17:35:58.517Z,8.00
2024-03-05T17:38:30.339Z,7.30
2024-03-05T17:41:02.016Z,8.70
2024-03-05T17:43:31.517Z,7.70
2024-03-05T17:46:00.420Z,7.60
2024-03-05T17:48:29.166Z,7.10
2024-03-05T17:50:58.283Z,7.90
2024-03-05T17:53:26.750Z,9.10
2024-03-05T17:55:55.422Z,7.40
2024-03-05T17:58:24.390Z,7.30
2024-03-05T18:00:52.858Z,7.40
2024-03-05T18:03:24.454Z,7.20
2024-03-05T18:05:54.133Z,7.90
2024-03-05T18:08:22.899Z,8.50
2024-03-05T18:10:51.508Z,8.00
2024-03-05T18:13:22.024Z,7.50
2024-03-05T18:15:52.245Z,7.70
2024-03-05T18:18:21.060Z,8.50
2024-03-05T18:20:50.165Z,8.60
2024-03-05T18:23:18.682Z,8.40
2024-03-05T18:25:49.144Z,8.10
2024-03-05T18:28:21.854Z,7.50
2024-03-05T18:30:51.626Z,8.00
2024-03-05T18:33:20.130Z,8.20
2024-03-05T18:35:48.695Z,8.10
2024-03-05T18:38:24.798Z,8.20
2024-03-05T18:41:00.242Z,7.10
2024-03-05T18:43:29.927Z,7.80
2024-03-05T18:46:00.949Z,9.10
2024-03-05T18:50:58.111Z,8.80
2024-03-05T18:53:35.938Z,9.80
2024-03-05T18:56:13.030Z,9.50
2024-03-05T18:58:42.588Z,9.70
2024-03-05T19:01:11.622Z,9.60
2024-03-05T19:03:40.367Z,8.20
2024-03-05T19:06:08.833Z,9.00
2024-03-05T19:08:39.351Z,7.90
2024-03-05T19:11:10.069Z,8.80
2024-03-05T19:13:39.262Z,6.80
2024-03-05T19:16:08.100Z,8.30
2024-03-05T19:18:36.715Z,7.50
2024-03-05T19:21:06.346Z,7.90
2024-03-05T19:23:34.975Z,7.10
2024-03-05T19:26:03.787Z,8.40
2024-03-05T19:28:35.579Z,8.50
2024-03-05T19:31:05.798Z,9.40
2024-03-05T19:33:35.077Z,8.30
2024-03-05T19:36:04.774Z,8.30
2024-03-05T19:38:33.052Z,7.40
2024-03-05T19:41:03.276Z,8.00
2024-03-05T19:43:36.050Z,9.50
2024-03-05T19:46:05.499Z,8.20
2024-03-05T19:48:34.293Z,7.40
2024-03-05T19:51:02.635Z,8.00
2024-03-05T19:53:30.796Z,8.20
2024-03-05T19:55:59.115Z,8.90
2024-03-05T19:58:27.320Z,8.60
2024-03-05T20:00:55.608Z,9.60
2024-03-05T20:03:23.817Z,8.70
2024-03-05T20:05:52.635Z,8.40
2024-03-05T20:08:20.722Z,8.30
2024-03-05T20:10:49.291Z,8.00
2024-03-05T20:13:17.857Z,8.60
2024-03-05T20:15:46.158Z,9.70
2024-03-05T20:18:14.373Z,9.40
2024-03-05T20:20:42.904Z,9.00
2024-03-05T20:23:11.215Z,9.70
2024-03-05T20:25:39.385Z,8.80
2024-03-05T20:28:11.390Z,8.30
2024-03-05T20:30:41.061Z,7.30
2024-03-05T20:33:13.349Z,8.20
2024-03-05T20:35:44.287Z,9.60
2024-03-05T20:40:40.839Z,8.30
2024-03-05T20:43:11.905Z,7.50
2024-03-05T20:45:40.162Z,9.30
2024-03-05T20:48:08.521Z,9.00
2024-03-05T20:50:36.965Z,8.20
2024-03-05T20:53:05.912Z,11.40
2024-03-05T20:55:34.480Z,8.00
2024-03-05T20:58:05.370Z,7.00
2024-03-05T21:00:33.656Z,8.60
2024-03-05T21:03:01.943Z,8.40
2024-03-05T21:05:31.482Z,7.40
2024-03-05T21:07:59.506Z,8.20
2024-03-05T21:10:28.368Z,7.70
2024-03-05T21:12:56.785Z,9.40
2024-03-05T21:15:26.174Z,8.30
2024-03-05T21:17:54.325Z,8.90
2024-03-05T21:20:23.708Z,7.30
2024-03-05T21:22:52.115Z,7.70
2024-03-05T21:25:23.210Z,7.10
2024-03-05T21:30:19.364Z,7.10
2024-03-05T21:32:47.420Z,7.90
2024-03-05T21:35:15.936Z,7.00
2024-03-05T21:37:45.123Z,7.00
2024-03-05T21:40:14.302Z,6.80
2024-03-05T21:42:45.021Z,8.30
2024-03-05T21:45:15.281Z,6.30
2024-03-05T21:47:45.004Z,7.20
2024-03-05T21:50:13.515Z,5.90
2024-03-05T21:52:46.155Z,5.40
2024-03-05T21:55:16.372Z,6.40
2024-03-05T21:57:44.755Z,6.40
2024-03-05T22:00:13.406Z,7.80
2024-03-05T22:02:42.414Z,7.20
2024-03-05T22:05:12.285Z,6.10
2024-03-05T22:07:40.842Z,7.40
2024-03-05T22:10:09.782Z,7.70
2024-03-05T22:12:41.837Z,7.70
2024-03-05T22:15:10.890Z,9.50
2024-03-05T22:17:39.080Z,8.50
2024-03-05T22:20:09.318Z,8.30
2024-03-05T22:25:07.941Z,8.70
2024-03-05T22:27:36.478Z,8.20
2024-03-05T22:30:09.044Z,7.70
2024-03-05T22:32:37.617Z,7.30
2024-03-05T22:35:10.818Z,8.70
2024-03-05T22:37:40.442Z,9.00
2024-03-05T22:40:11.448Z,7.70
2024-03-05T22:42:40.046Z,8.40
2024-03-05T22:45:10.357Z,7.70
2024-03-05T22:47:38.588Z,7.30
2024-03-05T22:50:10.616Z,7.00
2024-03-05T22:52:39.661Z,6.80
2024-03-05T22:55:08.918Z,8.60
2024-03-05T22:57:37.349Z,7.60
2024-03-05T23:00:24.464Z,8.40
2024-03-05T23:02:52.882Z,8.60
2024-03-05T23:05:21.421Z,12.50
2024-03-05T23:07:49.771Z,7.80
2024-03-05T23:10:18.092Z,7.40
2024-03-05T23:12:46.061Z,8.30
2024-03-05T23:15:16.489Z,7.00
2024-03-05T23:20:13.331Z,6.40
2024-03-05T23:22:41.350Z,9.50
2024-03-05T23:25:13.441Z,7.00
2024-03-05T23:27:43.174Z,7.40
2024-03-05T23:30:11.947Z,8.70
2024-03-05T23:32:40.198Z,7.50
2024-03-05T23:35:08.790Z,8.30
2024-03-05T23:37:37.182Z,8.10
2024-03-05T23:40:08.356Z,8.90
2024-03-05T23:42:36.767Z,7.80
2024-03-05T23:45:05.353Z,7.30
2024-03-05T23:47:33.852Z,8.40
2024-03-05T23:50:02.116Z,8.20
2024-03-05T23:52:30.388Z,6.90
2024-03-05T23:55:01.345Z,9.00
2024-03-05T23:57:31.101Z,7.80
2024-03-05T23:59:59.187Z,8.00
